sensor_id;sensor_type;location;lat;lon;timestamp;pressure;altitude;pressure_sealevel;temperature;humidity
61292;BME280;47165;42.664;23.368;2022-12-15T00:02:27;94192.91;;;3.80;77.30
61292;BME280;47165;42.664;23.368;2022-12-15T00:05:12;94154.81;;;3.86;77.33
61292;BME280;47165;42.664;23.368;2022-12-15T00:07:55;94173.00;;;3.82;77.04
61292;BME280;47165;42.664;23.368;2022-12-15T00:10:40;94177.72;;;3.73;77.42
61292;BME280;47165;42.664;23.368;2022-12-15T00:13:24;94183.22;;;3.86;77.16
61292;BME280;47165;42.664;23.368;2022-12-15T00:16:08;94187.34;;;3.90;77.47
61292;BME280;47165;42.664;23.368;2022-12-15T00:18:51;94192.22;;;3.96;77.63
61292;BME280;47165;42.664;23.368;2022-12-15T00:21:35;94217.41;;;3.91;77.10
61292;BME280;47165;42.664;23.368;2022-12-15T00:24:20;94214.44;;;4.00;77.43
61292;BME280;47165;42.664;23.368;2022-12-15T00:27:04;94227.25;;;4.01;77.75
61292;BME280;47165;42.664;23.368;2022-12-15T00:29:48;94259.78;;;4.06;77.09
61292;BME280;47165;42.664;23.368;2022-12-15T00:32:32;94273.91;;;3.98;77.60
61292;BME280;47165;42.664;23.368;2022-12-15T00:35:16;94258.53;;;3.95;77.48
61292;BME280;47165;42.664;23.368;2022-12-15T00:38:08;94264.41;;;3.99;77.43
61292;BME280;47165;42.664;23.368;2022-12-15T00:40:52;94259.38;;;3.96;77.46
61292;BME280;47165;42.664;23.368;2022-12-15T00:43:27;94255.03;;;3.96;77.61
61292;BME280;47165;42.664;23.368;2022-12-15T00:45:52;94240.13;;;4.03;77.50
61292;BME280;47165;42.664;23.368;2022-12-15T00:48:37;94230.81;;;3.99;77.95
61292;BME280;47165;42.664;23.368;2022-12-15T00:51:03;94224.78;;;4.00;77.70
61292;BME280;47165;42.664;23.368;2022-12-15T00:53:28;94215.88;;;3.87;78.16
61292;BME280;47165;42.664;23.368;2022-12-15T00:56:12;94208.72;;;3.73;78.74
61292;BME280;47165;42.664;23.368;2022-12-15T00:58:56;94206.00;;;3.76;78.30
61292;BME280;47165;42.664;23.368;2022-12-15T01:01:40;94199.75;;;3.81;79.10
61292;BME280;47165;42.664;23.368;2022-12-15T01:04:24;94197.06;;;3.83;78.41
61292;BME280;47165;42.664;23.368;2022-12-15T01:07:08;94201.13;;;3.89;78.60
61292;BME280;47165;42.664;23.368;2022-12-15T01:09:52;94193.28;;;3.92;78.40
61292;BME280;47165;42.664;23.368;2022-12-15T01:12:36;94199.06;;;3.97;78.59
61292;BME280;47165;42.664;23.368;2022-12-15T01:15:20;94187.84;;;3.98;78.20
61292;BME280;47165;42.664;23.368;2022-12-15T01:18:04;94154.25;;;3.98;78.04
61292;BME280;47165;42.664;23.368;2022-12-15T01:20:56;94180.53;;;3.48;80.69
61292;BME280;47165;42.664;23.368;2022-12-15T01:23:21;94178.00;;;3.67;80.19
61292;BME280;47165;42.664;23.368;2022-12-15T01:25:49;94186.41;;;3.72;79.78
61292;BME280;47165;42.664;23.368;2022-12-15T01:28:15;94176.56;;;3.20;81.45
61292;BME280;47165;42.664;23.368;2022-12-15T01:30:40;94163.41;;;3.47;81.59
61292;BME280;47165;42.664;23.368;2022-12-15T01:33:06;94176.72;;;3.36;81.35
61292;BME280;47165;42.664;23.368;2022-12-15T01:35:31;94165.88;;;3.48;81.14
61292;BME280;47165;42.664;23.368;2022-12-15T01:37:57;94215.00;;;3.26;82.10
61292;BME280;47165;42.664;23.368;2022-12-15T01:40:22;94198.66;;;3.46;81.66
61292;BME280;47165;42.664;23.368;2022-12-15T01:43:22;94199.06;;;3.37;82.27
61292;BME280;47165;42.664;23.368;2022-12-15T01:48:46;94168.03;;;3.59;81.55
61292;BME280;47165;42.664;23.368;2022-12-15T01:51:29;94172.78;;;3.68;80.76
61292;BME280;47165;42.664;23.368;2022-12-15T01:54:16;94165.53;;;3.76;80.75
61292;BME280;47165;42.664;23.368;2022-12-15T01:56:45;94160.81;;;3.86;80.44
61292;BME280;47165;42.664;23.368;2022-12-15T01:59:16;94155.38;;;3.92;80.41
61292;BME280;47165;42.664;23.368;2022-12-15T02:01:44;94144.47;;;3.86;79.99
61292;BME280;47165;42.664;23.368;2022-12-15T02:04:10;94127.94;;;3.90;80.21
61292;BME280;47165;42.664;23.368;2022-12-15T02:06:36;94124.78;;;3.83;80.22
61292;BME280;47165;42.664;23.368;2022-12-15T02:09:01;94123.22;;;3.60;80.41
61292;BME280;47165;42.664;23.368;2022-12-15T02:14:15;94110.06;;;3.66;80.97
61292;BME280;47165;42.664;23.368;2022-12-15T02:16:55;94151.03;;;3.74;81.01
61292;BME280;47165;42.664;23.368;2022-12-15T02:20:25;94077.13;;;3.90;80.80
61292;BME280;47165;42.664;23.368;2022-12-15T02:22:59;94083.19;;;3.89;80.43
61292;BME280;47165;42.664;23.368;2022-12-15T02:31:16;94062.81;;;4.02;79.96
61292;BME280;47165;42.664;23.368;2022-12-15T02:34:12;94062.53;;;4.08;79.87
61292;BME280;47165;42.664;23.368;2022-12-15T02:36:42;94073.53;;;4.12;79.62
61292;BME280;47165;42.664;23.368;2022-12-15T02:39:12;94109.56;;;4.15;79.65
61292;BME280;47165;42.664;23.368;2022-12-15T02:41:42;94063.91;;;4.15;79.47
61292;BME280;47165;42.664;23.368;2022-12-15T02:44:19;94106.63;;;3.85;79.62
61292;BME280;47165;42.664;23.368;2022-12-15T02:55:08;94123.00;;;4.04;79.36
61292;BME280;47165;42.664;23.368;2022-12-15T03:00:09;94129.28;;;3.98;79.66
61292;BME280;47165;42.664;23.368;2022-12-15T03:02:38;94120.47;;;4.02;79.59
61292;BME280;47165;42.664;23.368;2022-12-15T03:05:05;94107.34;;;4.07;79.53
61292;BME280;47165;42.664;23.368;2022-12-15T03:07:31;94130.53;;;4.09;79.59
61292;BME280;47165;42.664;23.368;2022-12-15T03:09:58;94133.59;;;4.17;79.68
61292;BME280;47165;42.664;23.368;2022-12-15T03:12:25;94122.28;;;4.19;79.14
61292;BME280;47165;42.664;23.368;2022-12-15T03:14:52;94095.38;;;4.23;79.13
61292;BME280;47165;42.664;23.368;2022-12-15T03:17:17;94118.56;;;4.25;79.25
61292;BME280;47165;42.664;23.368;2022-12-15T03:19:43;94119.13;;;4.13;78.79
61292;BME280;47165;42.664;23.368;2022-12-15T03:22:08;94102.44;;;4.20;79.04
61292;BME280;47165;42.664;23.368;2022-12-15T03:24:34;94104.88;;;4.23;78.76
61292;BME280;47165;42.664;23.368;2022-12-15T03:26:59;94115.28;;;4.21;78.93
61292;BME280;47165;42.664;23.368;2022-12-15T03:29:25;94114.47;;;4.02;78.95
61292;BME280;47165;42.664;23.368;2022-12-15T03:31:50;94120.47;;;4.02;79.29
61292;BME280;47165;42.664;23.368;2022-12-15T03:34:16;94127.31;;;3.85;79.92
61292;BME280;47165;42.664;23.368;2022-12-15T03:36:41;94108.81;;;3.94;79.81
61292;BME280;47165;42.664;23.368;2022-12-15T03:39:07;94115.44;;;3.99;79.71
61292;BME280;47165;42.664;23.368;2022-12-15T03:41:32;94121.84;;;3.91;79.82
61292;BME280;47165;42.664;23.368;2022-12-15T03:43:58;94105.19;;;3.98;79.91
61292;BME280;47165;42.664;23.368;2022-12-15T03:46:24;94105.97;;;4.00;79.40
61292;BME280;47165;42.664;23.368;2022-12-15T03:48:51;94121.66;;;3.95;79.31
61292;BME280;47165;42.664;23.368;2022-12-15T03:51:16;94129.31;;;3.97;79.37
61292;BME280;47165;42.664;23.368;2022-12-15T03:53:42;94129.66;;;3.89;79.76
61292;BME280;47165;42.664;23.368;2022-12-15T03:56:07;94157.03;;;3.93;79.75
61292;BME280;47165;42.664;23.368;2022-12-15T03:58:33;94150.00;;;3.97;79.77
61292;BME280;47165;42.664;23.368;2022-12-15T04:01:09;94152.44;;;4.00;79.56
61292;BME280;47165;42.664;23.368;2022-12-15T04:03:34;94159.31;;;3.41;80.99
61292;BME280;47165;42.664;23.368;2022-12-15T04:06:00;94159.09;;;3.66;81.08
61292;BME280;47165;42.664;23.368;2022-12-15T04:08:25;94168.88;;;3.78;80.61
61292;BME280;47165;42.664;23.368;2022-12-15T04:10:51;94172.13;;;3.83;80.90
61292;BME280;47165;42.664;23.368;2022-12-15T04:13:16;94189.16;;;3.88;80.34
61292;BME280;47165;42.664;23.368;2022-12-15T04:15:41;94169.16;;;3.91;80.57
61292;BME280;47165;42.664;23.368;2022-12-15T04:18:09;94186.91;;;3.99;80.40
61292;BME280;47165;42.664;23.368;2022-12-15T04:20:36;94186.03;;;4.00;80.08
61292;BME280;47165;42.664;23.368;2022-12-15T04:23:02;94187.41;;;3.88;80.04
61292;BME280;47165;42.664;23.368;2022-12-15T04:25:27;94184.53;;;3.94;79.98
61292;BME280;47165;42.664;23.368;2022-12-15T04:28:12;94181.47;;;4.05;79.76
61292;BME280;47165;42.664;23.368;2022-12-15T04:30:59;94181.06;;;4.14;79.39
61292;BME280;47165;42.664;23.368;2022-12-15T04:33:47;94177.50;;;4.17;79.64
61292;BME280;47165;42.664;23.368;2022-12-15T04:36:33;94169.06;;;4.13;79.16
61292;BME280;47165;42.664;23.368;2022-12-15T04:39:18;94165.69;;;4.11;79.15
61292;BME280;47165;42.664;23.368;2022-12-15T04:42:02;94164.44;;;4.20;79.11
61292;BME280;47165;42.664;23.368;2022-12-15T04:44:48;94146.72;;;4.12;79.29
61292;BME280;47165;42.664;23.368;2022-12-15T04:47:34;94143.00;;;3.99;79.84
61292;BME280;47165;42.664;23.368;2022-12-15T04:50:18;94160.69;;;4.08;79.80
61292;BME280;47165;42.664;23.368;2022-12-15T04:53:10;94156.00;;;4.16;79.76
61292;BME280;47165;42.664;23.368;2022-12-15T04:55:55;94159.28;;;4.20;79.78
61292;BME280;47165;42.664;23.368;2022-12-15T04:58:39;94162.44;;;4.27;79.89
61292;BME280;47165;42.664;23.368;2022-12-15T05:01:23;94169.97;;;4.31;79.56
61292;BME280;47165;42.664;23.368;2022-12-15T05:04:07;94193.22;;;4.31;79.63
61292;BME280;47165;42.664;23.368;2022-12-15T05:06:50;94198.09;;;4.37;79.79
61292;BME280;47165;42.664;23.368;2022-12-15T05:09:34;94209.97;;;4.41;79.33
61292;BME280;47165;42.664;23.368;2022-12-15T05:12:18;94206.56;;;4.41;79.27
61292;BME280;47165;42.664;23.368;2022-12-15T05:15:02;94203.00;;;4.43;79.48
61292;BME280;47165;42.664;23.368;2022-12-15T05:17:46;94227.16;;;4.42;79.20
61292;BME280;47165;42.664;23.368;2022-12-15T05:20:30;94239.88;;;4.47;79.38
61292;BME280;47165;42.664;23.368;2022-12-15T05:23:14;94241.72;;;4.45;78.50
61292;BME280;47165;42.664;23.368;2022-12-15T05:25:58;94262.38;;;4.45;78.74
61292;BME280;47165;42.664;23.368;2022-12-15T05:28:42;94279.97;;;4.37;78.50
61292;BME280;47165;42.664;23.368;2022-12-15T05:31:26;94278.50;;;4.31;79.08
61292;BME280;47165;42.664;23.368;2022-12-15T05:34:10;94269.00;;;4.32;79.08
61292;BME280;47165;42.664;23.368;2022-12-15T05:36:35;94278.13;;;4.20;79.63
61292;BME280;47165;42.664;23.368;2022-12-15T05:39:01;94292.41;;;4.29;79.42
61292;BME280;47165;42.664;23.368;2022-12-15T05:41:27;94300.66;;;4.37;79.33
61292;BME280;47165;42.664;23.368;2022-12-15T05:43:52;94306.44;;;4.42;78.94
61292;BME280;47165;42.664;23.368;2022-12-15T05:46:18;94307.09;;;4.47;78.84
61292;BME280;47165;42.664;23.368;2022-12-15T05:48:43;94317.22;;;4.52;79.03
61292;BME280;47165;42.664;23.368;2022-12-15T05:51:10;94327.50;;;4.53;78.66
61292;BME280;47165;42.664;23.368;2022-12-15T05:53:38;94334.34;;;4.54;78.64
61292;BME280;47165;42.664;23.368;2022-12-15T05:56:06;94329.66;;;4.43;78.80
61292;BME280;47165;42.664;23.368;2022-12-15T05:58:32;94363.38;;;4.40;78.42
61292;BME280;47165;42.664;23.368;2022-12-15T06:01:03;94348.06;;;4.36;78.83
61292;BME280;47165;42.664;23.368;2022-12-15T06:03:28;94359.88;;;4.41;79.35
61292;BME280;47165;42.664;23.368;2022-12-15T06:05:53;94372.81;;;4.41;79.15
61292;BME280;47165;42.664;23.368;2022-12-15T06:08:19;94384.41;;;4.33;79.36
61292;BME280;47165;42.664;23.368;2022-12-15T06:10:51;94378.56;;;4.07;80.09
61292;BME280;47165;42.664;23.368;2022-12-15T06:13:17;94376.19;;;4.23;80.43
61292;BME280;47165;42.664;23.368;2022-12-15T06:15:43;94371.78;;;4.25;79.89
61292;BME280;47165;42.664;23.368;2022-12-15T06:18:08;94381.19;;;4.26;80.03
61292;BME280;47165;42.664;23.368;2022-12-15T06:20:33;94392.25;;;4.30;79.89
61292;BME280;47165;42.664;23.368;2022-12-15T06:22:59;94386.25;;;4.29;80.04
61292;BME280;47165;42.664;23.368;2022-12-15T06:25:24;94381.97;;;4.28;79.93
61292;BME280;47165;42.664;23.368;2022-12-15T06:27:49;94403.50;;;4.29;79.86
61292;BME280;47165;42.664;23.368;2022-12-15T06:30:15;94393.88;;;4.32;79.77
61292;BME280;47165;42.664;23.368;2022-12-15T06:32:40;94394.63;;;4.34;79.81
61292;BME280;47165;42.664;23.368;2022-12-15T06:35:06;94403.94;;;4.38;79.83
61292;BME280;47165;42.664;23.368;2022-12-15T06:37:31;94409.78;;;4.43;79.71
61292;BME280;47165;42.664;23.368;2022-12-15T06:39:57;94406.88;;;4.51;79.73
61292;BME280;47165;42.664;23.368;2022-12-15T06:42:22;94423.94;;;4.55;79.58
61292;BME280;47165;42.664;23.368;2022-12-15T06:44:48;94424.56;;;4.60;79.62
61292;BME280;47165;42.664;23.368;2022-12-15T06:47:13;94420.16;;;4.62;79.50
61292;BME280;47165;42.664;23.368;2022-12-15T06:49:39;94421.59;;;4.70;79.42
61292;BME280;47165;42.664;23.368;2022-12-15T06:52:04;94431.50;;;4.79;79.07
61292;BME280;47165;42.664;23.368;2022-12-15T06:54:29;94427.13;;;4.81;79.12
61292;BME280;47165;42.664;23.368;2022-12-15T06:56:55;94425.19;;;4.86;78.89
61292;BME280;47165;42.664;23.368;2022-12-15T06:59:20;94425.25;;;4.84;78.52
61292;BME280;47165;42.664;23.368;2022-12-15T07:01:46;94426.72;;;4.90;78.00
61292;BME280;47165;42.664;23.368;2022-12-15T07:04:11;94432.94;;;4.86;77.96
61292;BME280;47165;42.664;23.368;2022-12-15T07:06:37;94430.25;;;4.88;78.11
61292;BME280;47165;42.664;23.368;2022-12-15T07:09:05;94449.72;;;4.96;78.05
61292;BME280;47165;42.664;23.368;2022-12-15T07:11:32;94448.75;;;4.99;77.86
61292;BME280;47165;42.664;23.368;2022-12-15T07:13:57;94451.13;;;5.03;77.93
61292;BME280;47165;42.664;23.368;2022-12-15T07:16:22;94455.31;;;5.06;77.50
61292;BME280;47165;42.664;23.368;2022-12-15T07:18:49;94463.50;;;4.97;77.34
61292;BME280;47165;42.664;23.368;2022-12-15T07:21:15;94466.28;;;4.92;77.36
61292;BME280;47165;42.664;23.368;2022-12-15T07:23:40;94468.34;;;5.04;77.42
61292;BME280;47165;42.664;23.368;2022-12-15T07:26:08;94464.56;;;5.12;77.01
61292;BME280;47165;42.664;23.368;2022-12-15T07:28:34;94470.72;;;5.09;77.25
61292;BME280;47165;42.664;23.368;2022-12-15T07:31:04;94479.03;;;5.16;76.76
61292;BME280;47165;42.664;23.368;2022-12-15T07:33:31;94476.66;;;5.11;77.13
61292;BME280;47165;42.664;23.368;2022-12-15T07:35:57;94490.03;;;5.21;76.99
61292;BME280;47165;42.664;23.368;2022-12-15T07:38:23;94488.09;;;5.26;76.83
61292;BME280;47165;42.664;23.368;2022-12-15T07:40:48;94489.63;;;5.30;77.05
61292;BME280;47165;42.664;23.368;2022-12-15T07:43:13;94498.31;;;5.29;76.66
61292;BME280;47165;42.664;23.368;2022-12-15T07:45:39;94493.81;;;5.33;76.38
61292;BME280;47165;42.664;23.368;2022-12-15T07:48:05;94500.41;;;5.40;76.12
61292;BME280;47165;42.664;23.368;2022-12-15T07:50:30;94480.13;;;5.50;76.15
61292;BME280;47165;42.664;23.368;2022-12-15T07:52:56;94491.88;;;5.57;75.71
61292;BME280;47165;42.664;23.368;2022-12-15T07:55:21;94494.34;;;5.60;75.69
61292;BME280;47165;42.664;23.368;2022-12-15T07:57:47;94505.19;;;5.68;75.19
61292;BME280;47165;42.664;23.368;2022-12-15T08:00:13;94515.19;;;5.76;75.47
61292;BME280;47165;42.664;23.368;2022-12-15T08:02:40;94512.41;;;5.80;75.26
61292;BME280;47165;42.664;23.368;2022-12-15T08:05:07;94528.50;;;5.87;75.36
61292;BME280;47165;42.664;23.368;2022-12-15T08:07:33;94530.78;;;5.93;75.29
61292;BME280;47165;42.664;23.368;2022-12-15T08:09:58;94533.19;;;5.98;74.78
61292;BME280;47165;42.664;23.368;2022-12-15T08:12:26;94535.56;;;6.02;74.69
61292;BME280;47165;42.664;23.368;2022-12-15T08:14:51;94532.13;;;6.02;74.11
61292;BME280;47165;42.664;23.368;2022-12-15T08:17:17;94534.44;;;6.08;74.29
61292;BME280;47165;42.664;23.368;2022-12-15T08:19:42;94523.94;;;6.11;74.19
61292;BME280;47165;42.664;23.368;2022-12-15T08:22:08;94530.56;;;6.17;74.11
61292;BME280;47165;42.664;23.368;2022-12-15T08:24:34;94530.38;;;6.21;74.14
61292;BME280;47165;42.664;23.368;2022-12-15T08:26:59;94529.38;;;6.24;73.99
61292;BME280;47165;42.664;23.368;2022-12-15T08:29:24;94537.63;;;6.32;73.98
61292;BME280;47165;42.664;23.368;2022-12-15T08:31:50;94552.97;;;6.37;74.01
61292;BME280;47165;42.664;23.368;2022-12-15T08:34:15;94544.13;;;6.41;73.95
61292;BME280;47165;42.664;23.368;2022-12-15T08:36:41;94550.78;;;6.47;73.95
61292;BME280;47165;42.664;23.368;2022-12-15T08:39:06;94549.72;;;6.51;73.72
61292;BME280;47165;42.664;23.368;2022-12-15T08:41:32;94548.66;;;6.55;73.90
61292;BME280;47165;42.664;23.368;2022-12-15T08:43:59;94556.97;;;6.61;73.85
61292;BME280;47165;42.664;23.368;2022-12-15T08:46:28;94550.66;;;6.67;73.85
61292;BME280;47165;42.664;23.368;2022-12-15T08:48:55;94560.78;;;6.72;74.03
61292;BME280;47165;42.664;23.368;2022-12-15T08:51:21;94557.00;;;6.79;74.14
61292;BME280;47165;42.664;23.368;2022-12-15T08:53:47;94562.84;;;6.82;74.03
61292;BME280;47165;42.664;23.368;2022-12-15T08:56:17;94568.59;;;6.89;73.52
61292;BME280;47165;42.664;23.368;2022-12-15T08:58:44;94558.06;;;6.92;73.44
61292;BME280;47165;42.664;23.368;2022-12-15T09:01:12;94564.63;;;6.99;73.53
61292;BME280;47165;42.664;23.368;2022-12-15T09:03:37;94542.78;;;7.03;72.99
61292;BME280;47165;42.664;23.368;2022-12-15T09:06:04;94550.09;;;7.13;73.52
61292;BME280;47165;42.664;23.368;2022-12-15T09:08:31;94555.75;;;7.21;73.79
61292;BME280;47165;42.664;23.368;2022-12-15T09:10:57;94549.16;;;7.31;74.13
61292;BME280;47165;42.664;23.368;2022-12-15T09:13:23;94544.34;;;7.41;74.07
61292;BME280;47165;42.664;23.368;2022-12-15T09:16:16;94554.22;;;7.50;73.80
61292;BME280;47165;42.664;23.368;2022-12-15T09:18:44;94548.88;;;7.53;73.59
61292;BME280;47165;42.664;23.368;2022-12-15T09:21:11;94553.84;;;7.58;73.62
61292;BME280;47165;42.664;23.368;2022-12-15T09:23:38;94545.91;;;7.61;73.66
61292;BME280;47165;42.664;23.368;2022-12-15T09:26:06;94557.81;;;7.65;73.56
61292;BME280;47165;42.664;23.368;2022-12-15T09:28:32;94548.00;;;7.70;73.32
61292;BME280;47165;42.664;23.368;2022-12-15T09:31:04;94558.00;;;7.78;73.24
61292;BME280;47165;42.664;23.368;2022-12-15T09:33:30;94558.66;;;7.81;72.77
61292;BME280;47165;42.664;23.368;2022-12-15T09:35:56;94567.81;;;7.89;72.92
61292;BME280;47165;42.664;23.368;2022-12-15T09:38:21;94562.34;;;7.93;72.51
61292;BME280;47165;42.664;23.368;2022-12-15T09:40:46;94569.66;;;8.02;72.79
61292;BME280;47165;42.664;23.368;2022-12-15T09:43:17;94565.72;;;8.11;71.75
61292;BME280;47165;42.664;23.368;2022-12-15T09:45:48;94559.28;;;8.18;71.85
61292;BME280;47165;42.664;23.368;2022-12-15T09:48:20;94572.72;;;8.26;71.67
61292;BME280;47165;42.664;23.368;2022-12-15T09:50:47;94564.31;;;8.21;71.74
61292;BME280;47165;42.664;23.368;2022-12-15T09:53:16;94565.56;;;8.30;71.64
61292;BME280;47165;42.664;23.368;2022-12-15T09:55:45;94566.97;;;8.36;71.66
61292;BME280;47165;42.664;23.368;2022-12-15T10:03:55;94560.88;;;8.53;71.65
61292;BME280;47165;42.664;23.368;2022-12-15T10:06:43;94554.75;;;8.54;71.20
61292;BME280;47165;42.664;23.368;2022-12-15T10:09:38;94548.72;;;8.53;70.65
61292;BME280;47165;42.664;23.368;2022-12-15T10:12:27;94549.91;;;8.48;70.77
61292;BME280;47165;42.664;23.368;2022-12-15T10:15:16;94556.41;;;8.55;70.41
61292;BME280;47165;42.664;23.368;2022-12-15T10:17:48;94557.69;;;8.63;70.84
61292;BME280;47165;42.664;23.368;2022-12-15T10:20:24;94557.81;;;8.76;70.74
61292;BME280;47165;42.664;23.368;2022-12-15T10:22:51;94554.78;;;8.84;70.20
61292;BME280;47165;42.664;23.368;2022-12-15T10:25:23;94563.34;;;8.86;69.70
61292;BME280;47165;42.664;23.368;2022-12-15T10:30:44;94562.28;;;9.04;68.67
61292;BME280;47165;42.664;23.368;2022-12-15T10:33:26;94567.28;;;9.07;69.00
61292;BME280;47165;42.664;23.368;2022-12-15T10:35:53;94573.84;;;9.15;68.88
61292;BME280;47165;42.664;23.368;2022-12-15T10:38:30;94570.22;;;9.17;68.62
61292;BME280;47165;42.664;23.368;2022-12-15T10:41:00;94576.91;;;9.21;67.77
61292;BME280;47165;42.664;23.368;2022-12-15T10:43:36;94579.84;;;9.01;67.70
61292;BME280;47165;42.664;23.368;2022-12-15T10:46:14;94574.00;;;9.12;67.90
61292;BME280;47165;42.664;23.368;2022-12-15T10:48:44;94566.03;;;9.15;67.80
61292;BME280;47165;42.664;23.368;2022-12-15T10:51:28;94573.47;;;9.21;66.99
61292;BME280;47165;42.664;23.368;2022-12-15T10:54:12;94562.88;;;9.24;67.30
61292;BME280;47165;42.664;23.368;2022-12-15T10:57:24;94576.63;;;9.26;67.71
61292;BME280;47165;42.664;23.368;2022-12-15T11:02:46;94572.38;;;9.25;67.75
61292;BME280;47165;42.664;23.368;2022-12-15T11:07:54;94568.63;;;9.15;67.52
61292;BME280;47165;42.664;23.368;2022-12-15T11:10:29;94572.63;;;9.20;67.96
61292;BME280;47165;42.664;23.368;2022-12-15T11:13:21;94567.19;;;8.95;68.25
61292;BME280;47165;42.664;23.368;2022-12-15T11:15:54;94567.84;;;8.98;68.47
61292;BME280;47165;42.664;23.368;2022-12-15T11:18:23;94569.25;;;8.74;68.55
61292;BME280;47165;42.664;23.368;2022-12-15T11:20:58;94572.06;;;8.85;68.87
61292;BME280;47165;42.664;23.368;2022-12-15T11:23:49;94569.41;;;8.71;69.40
61292;BME280;47165;42.664;23.368;2022-12-15T11:26:38;94571.09;;;8.72;69.44
61292;BME280;47165;42.664;23.368;2022-12-15T11:29:13;94577.69;;;8.77;69.02
61292;BME280;47165;42.664;23.368;2022-12-15T11:31:43;94569.53;;;8.83;69.50
61292;BME280;47165;42.664;23.368;2022-12-15T11:34:12;94572.69;;;9.04;70.19
61292;BME280;47165;42.664;23.368;2022-12-15T11:44:45;94579.31;;;9.69;67.28
61292;BME280;47165;42.664;23.368;2022-12-15T11:50:36;94582.09;;;9.95;65.93
61292;BME280;47165;42.664;23.368;2022-12-15T11:58:28;94569.75;;;10.54;64.87
61292;BME280;47165;42.664;23.368;2022-12-15T12:01:20;94588.19;;;11.05;63.89
61292;BME280;47165;42.664;23.368;2022-12-15T12:04:08;94585.94;;;11.39;62.60
61292;BME280;47165;42.664;23.368;2022-12-15T12:11:55;94583.09;;;12.69;57.57
61292;BME280;47165;42.664;23.368;2022-12-15T12:20:08;94582.75;;;13.46;55.74
61292;BME280;47165;42.664;23.368;2022-12-15T12:23:08;94579.59;;;13.76;55.11
61292;BME280;47165;42.664;23.368;2022-12-15T12:25:33;94586.56;;;14.11;52.69
61292;BME280;47165;42.664;23.368;2022-12-15T12:30:37;94590.59;;;14.15;53.00
61292;BME280;47165;42.664;23.368;2022-12-15T12:33:12;94599.28;;;14.04;52.50
61292;BME280;47165;42.664;23.368;2022-12-15T12:35:52;94599.78;;;13.87;52.63
61292;BME280;47165;42.664;23.368;2022-12-15T12:38:30;94621.91;;;13.60;53.68
61292;BME280;47165;42.664;23.368;2022-12-15T12:43:58;94623.53;;;13.26;54.87
61292;BME280;47165;42.664;23.368;2022-12-15T12:46:50;94617.72;;;13.09;55.03
61292;BME280;47165;42.664;23.368;2022-12-15T12:51:52;94622.03;;;12.86;55.46
61292;BME280;47165;42.664;23.368;2022-12-15T12:57:00;94612.22;;;12.27;57.16
61292;BME280;47165;42.664;23.368;2022-12-15T12:59:32;94633.47;;;12.36;57.96
61292;BME280;47165;42.664;23.368;2022-12-15T13:12:54;94629.22;;;12.59;57.49
61292;BME280;47165;42.664;23.368;2022-12-15T13:17:54;94633.69;;;12.20;57.85
61292;BME280;47165;42.664;23.368;2022-12-15T13:20:35;94636.13;;;12.10;58.09
61292;BME280;47165;42.664;23.368;2022-12-15T13:39:02;94650.16;;;11.43;60.73
61292;BME280;47165;42.664;23.368;2022-12-15T13:41:28;94648.09;;;11.48;60.48
61292;BME280;47165;42.664;23.368;2022-12-15T13:43:54;94659.38;;;11.49;60.85
61292;BME280;47165;42.664;23.368;2022-12-15T13:46:25;94653.09;;;11.52;61.06
61292;BME280;47165;42.664;23.368;2022-12-15T13:51:31;94665.09;;;11.41;61.31
61292;BME280;47165;42.664;23.368;2022-12-15T13:54:21;94661.00;;;11.24;61.48
61292;BME280;47165;42.664;23.368;2022-12-15T13:56:53;94674.63;;;10.88;61.89
61292;BME280;47165;42.664;23.368;2022-12-15T13:59:42;94668.50;;;10.89;62.00
61292;BME280;47165;42.664;23.368;2022-12-15T14:02:29;94680.75;;;10.60;63.05
61292;BME280;47165;42.664;23.368;2022-12-15T14:10:26;94689.47;;;10.32;64.39
61292;BME280;47165;42.664;23.368;2022-12-15T14:12:55;94686.53;;;10.22;64.33
61292;BME280;47165;42.664;23.368;2022-12-15T14:15:27;94695.47;;;10.18;64.69
61292;BME280;47165;42.664;23.368;2022-12-15T14:17:55;94699.38;;;10.11;64.59
61292;BME280;47165;42.664;23.368;2022-12-15T14:20:40;94706.72;;;10.04;65.13
61292;BME280;47165;42.664;23.368;2022-12-15T14:23:43;94704.69;;;9.95;65.55
61292;BME280;47165;42.664;23.368;2022-12-15T14:26:11;94713.97;;;9.84;66.40
61292;BME280;47165;42.664;23.368;2022-12-15T14:28:39;94708.25;;;9.78;66.51
61292;BME280;47165;42.664;23.368;2022-12-15T14:31:10;94719.91;;;9.72;67.05
61292;BME280;47165;42.664;23.368;2022-12-15T14:33:40;94710.84;;;9.63;66.73
61292;BME280;47165;42.664;23.368;2022-12-15T14:36:08;94727.41;;;9.62;66.98
61292;BME280;47165;42.664;23.368;2022-12-15T14:38:51;94729.19;;;9.62;66.99
61292;BME280;47165;42.664;23.368;2022-12-15T14:41:21;94731.41;;;9.54;67.53
61292;BME280;47165;42.664;23.368;2022-12-15T14:43:49;94737.72;;;9.50;67.57
61292;BME280;47165;42.664;23.368;2022-12-15T14:46:18;94747.53;;;9.44;68.22
61292;BME280;47165;42.664;23.368;2022-12-15T14:48:52;94752.09;;;9.41;68.30
61292;BME280;47165;42.664;23.368;2022-12-15T14:51:19;94745.56;;;9.34;68.35
61292;BME280;47165;42.664;23.368;2022-12-15T14:53:50;94754.53;;;9.28;68.92
61292;BME280;47165;42.664;23.368;2022-12-15T14:58:45;94755.31;;;9.14;69.33
61292;BME280;47165;42.664;23.368;2022-12-15T15:01:25;94761.44;;;9.13;69.49
61292;BME280;47165;42.664;23.368;2022-12-15T15:04:52;94760.19;;;9.04;69.80
61292;BME280;47165;42.664;23.368;2022-12-15T15:06:43;94752.47;;;9.03;70.19
61292;BME280;47165;42.664;23.368;2022-12-15T15:09:32;94762.06;;;9.02;70.00
61292;BME280;47165;42.664;23.368;2022-12-15T15:12:02;94774.66;;;8.94;70.20
61292;BME280;47165;42.664;23.368;2022-12-15T15:14:37;94769.56;;;8.75;71.04
61292;BME280;47165;42.664;23.368;2022-12-15T15:19:44;94777.47;;;8.74;70.80
61292;BME280;47165;42.664;23.368;2022-12-15T15:24:54;94775.34;;;8.64;71.05
61292;BME280;47165;42.664;23.368;2022-12-15T15:27:33;94784.25;;;8.60;70.72
61292;BME280;47165;42.664;23.368;2022-12-15T15:30:12;94783.66;;;8.55;71.33